Altus, Arkansas
Current Conditions -  °F | °C
As of 6:53 PM on Tuesday 25 Nov 2014 (Local Time) from KFSM Reporting Station
Clear Clear  
Wind Chill:   Ceiling: Unl
Heat Index:   Visibility: 10mi
Dew Point: -4°   Wind: 0mph
Humidity: 53%   Direction: NA
Pressure: 30.17"   Gusts: NA
Location:  35.45°N, 93.76°W
Report Text: KFSM 260053Z 00000KT 10SM CLR 05/M04 A3017 RMK AO2 SLP220 T00501039
Loading
Personal Weather Stations






























Interactive Weather Map New forecast layout! Learn more

10-Day Weather Forecast

Advertisements
Track Severe Weather on mobile